»·PEaware :: N737JR KSBA-KBFL

N737JR :: KSBA-KBFL

FLIGHT INFORMATION

Flight Status: Arrived
Operator: Privately registered:
United States
More flights under this callsign
Pilot: Anonymous 27129 (27129)
Aircraft: CESSNA 172 SKYHAWK
(C172)
More flights by this aircraft type
Origin: KSBA Santa Barbara Mun
United States
Destination: KBFL Meadows
United States
More flights between these airports :: More routes between these airports
Route: +
File this flight plan on PilotEdge
Remarks: +CW
Altitude:
(Current/Filed)
0ft
Speed:
(Current/Filed)
0kts
Departed: 13-Feb-20 10:07 AM
Arrived: 13-Feb-20 10:53 AM
Distance/Time
Traveled:
72nm/0:46
Distance/Time
To Go:
Arrived

Flight Plot

Page will automatically refresh every two minutes.


Map Options




Map Legend


Flown Route
Filed Route
Departure Airport
Arrival Airport
Navaid (VOR, NDB)
Fix

Horizontal Profiles

Position Reports

Time Latitude Longitude Heading Altitude Ground
Speed
13-Feb-20 09:54 35.238248 -120.639994 308 216ft 0kts
13-Feb-20 09:55 35.238248 -120.639994 308 216ft 0kts
13-Feb-20 09:56 35.238248 -120.639994 308 216ft 0kts
13-Feb-20 09:57 35.238248 -120.639994 308 216ft 0kts
13-Feb-20 09:58 35.238248 -120.639994 308 216ft 0kts
13-Feb-20 09:59 35.238248 -120.639994 308 216ft 0kts
13-Feb-20 10:00 35.238248 -120.639994 308 216ft 0kts
13-Feb-20 10:01 35.238248 -120.639994 308 216ft 0kts
13-Feb-20 10:02 35.236303 -120.637273 123 216ft 20kts
13-Feb-20 10:03 35.233344 -120.632150 188 216ft 6kts
13-Feb-20 10:04 35.233331 -120.632155 200 216ft 0kts
13-Feb-20 10:05 35.233145 -120.632376 214 216ft 0kts
13-Feb-20 10:06 35.239118 -120.644032 305 459ft 80kts
13-Feb-20 10:07 35.255875 -120.653565 48 1270ft 87kts
13-Feb-20 10:08 35.251192 -120.623132 106 2014ft 98kts
13-Feb-20 10:09 35.247961 -120.592990 89 2992ft 82kts
13-Feb-20 10:10 35.249059 -120.565403 84 3762ft 86kts
13-Feb-20 10:11 35.251935 -120.534688 81 4472ft 94kts
13-Feb-20 10:12 35.255686 -120.502697 80 5174ft 95kts
13-Feb-20 10:13 35.259662 -120.470853 80 5872ft 93kts
13-Feb-20 10:14 35.263657 -120.439658 80 6523ft 94kts
13-Feb-20 10:15 35.267782 -120.407702 80 7125ft 95kts
13-Feb-20 10:16 35.272366 -120.371882 80 7299ft 120kts
13-Feb-20 10:18 35.277520 -120.331048 81 7296ft 121kts
13-Feb-20 10:19 35.282713 -120.290302 81 7297ft 121kts
13-Feb-20 10:20 35.287898 -120.249683 81 7297ft 120kts
13-Feb-20 10:21 35.293086 -120.208973 81 7297ft 120kts
13-Feb-20 10:22 35.298237 -120.168444 81 7297ft 120kts
13-Feb-20 10:23 35.303399 -120.127721 81 7297ft 120kts
13-Feb-20 10:24 35.308547 -120.086997 81 7297ft 120kts
13-Feb-20 10:25 35.313672 -120.046334 81 7297ft 120kts
13-Feb-20 10:26 35.318787 -120.005646 81 7297ft 120kts
13-Feb-20 10:27 35.323890 -119.964940 81 7297ft 121kts
13-Feb-20 10:28 35.328978 -119.924235 81 7297ft 121kts
13-Feb-20 10:29 35.333559 -119.883286 81 7236ft 124kts
13-Feb-20 10:30 35.338668 -119.841016 81 6795ft 125kts
13-Feb-20 10:31 35.342836 -119.798765 84 6394ft 124kts
13-Feb-20 10:32 35.345014 -119.756397 85 5997ft 124kts
13-Feb-20 10:33 35.347199 -119.714035 85 5595ft 125kts
13-Feb-20 10:34 35.349280 -119.673945 86 5513ft 110kts
13-Feb-20 10:34 35.350986 -119.642077 85 5308ft 117kts
13-Feb-20 10:36 35.354512 -119.598418 83 5316ft 107kts
13-Feb-20 10:37 35.357801 -119.561345 82 5157ft 116kts
13-Feb-20 10:37 35.361105 -119.527850 82 4911ft 120kts
13-Feb-20 10:39 35.365900 -119.480106 82 4562ft 121kts
13-Feb-20 10:40 35.370023 -119.438842 82 4261ft 121kts
13-Feb-20 10:40 35.373546 -119.404523 82 4011ft 121kts
13-Feb-20 10:41 35.377718 -119.363383 82 3712ft 122kts
13-Feb-20 10:43 35.382751 -119.314263 82 3201ft 128kts
13-Feb-20 10:43 35.386695 -119.277983 81 2784ft 129kts
13-Feb-20 10:44 35.391682 -119.237305 81 2317ft 129kts
13-Feb-20 10:45 35.397792 -119.194795 77 2167ft 111kts
13-Feb-20 10:46 35.404666 -119.157696 74 1992ft 115kts
13-Feb-20 10:47 35.414750 -119.120150 71 1812ft 110kts
13-Feb-20 10:48 35.421069 -119.084792 94 1794ft 107kts
13-Feb-20 10:49 35.408912 -119.051670 146 1588ft 92kts
13-Feb-20 10:50 35.401683 -119.033289 30 1454ft 79kts
13-Feb-20 10:51 35.420745 -119.041320 321 942ft 79kts
13-Feb-20 10:52 35.433912 -119.056265 315 488ft 29kts
13-Feb-20 10:53 35.436206 -119.057932 54 492ft 0kts
13-Feb-20 10:54 35.436444 -119.054543 47 499ft 11kts

Navigation Log

Ident Type
Flight plan parsing failed, navigation log unavailable